createdAt,value
2017-09-11T00:01:45.342Z,99190.03
2017-09-11T00:04:12.734Z,99187.41
2017-09-11T00:06:40.118Z,99179.28
2017-09-11T00:09:07.511Z,99177.95
2017-09-11T00:11:34.899Z,99184.69
2017-09-11T00:14:02.282Z,99168.11
2017-09-11T00:16:29.690Z,99162.53
2017-09-11T00:18:57.079Z,99161.55
2017-09-11T00:21:24.474Z,99157.50
2017-09-11T00:23:51.870Z,99141.96
2017-09-11T00:26:19.258Z,99133.78
2017-09-11T00:28:46.642Z,99128.60
2017-09-11T00:31:14.042Z,99129.52
2017-09-11T00:33:41.422Z,99118.33
2017-09-11T00:36:08.818Z,99117.02
2017-09-11T00:38:36.203Z,99115.30
2017-09-11T00:41:03.590Z,99117.83
2017-09-11T00:43:30.996Z,99111.90
2017-09-11T00:45:58.374Z,99111.85
2017-09-11T00:48:25.756Z,99109.39
2017-09-11T00:50:53.143Z,99110.78
2017-09-11T00:53:20.528Z,99105.57
2017-09-11T00:55:47.918Z,99103.24
2017-09-11T00:58:15.302Z,99097.22
2017-09-11T01:00:42.683Z,99100.83
2017-09-11T01:03:10.069Z,99106.15
2017-09-11T01:05:37.442Z,99100.94
2017-09-11T01:08:04.831Z,99095.94
2017-09-11T01:10:32.249Z,99093.05
2017-09-11T01:12:59.675Z,99083.81
2017-09-11T01:15:27.168Z,99087.23
2017-09-11T01:17:54.554Z,99079.78
2017-09-11T01:20:21.942Z,99072.45
2017-09-11T01:22:49.331Z,99077.80
2017-09-11T01:25:16.790Z,99066.33
2017-09-11T01:27:44.179Z,99069.30
2017-09-11T01:30:11.566Z,99068.38
2017-09-11T01:32:38.969Z,99069.69
2017-09-11T01:35:06.415Z,99062.97
2017-09-11T01:37:33.798Z,99057.05
2017-09-11T01:40:01.215Z,99069.36
2017-09-11T01:42:28.599Z,99052.20
2017-09-11T01:44:55.982Z,99057.23
2017-09-11T01:47:23.486Z,99050.02
2017-09-11T01:49:50.875Z,99053.41
2017-09-11T01:52:18.250Z,99047.34
2017-09-11T01:54:45.651Z,99050.44
2017-09-11T01:57:13.031Z,99041.55
2017-09-11T01:59:40.506Z,99042.95
2017-09-11T02:02:35.570Z,99033.55
2017-09-11T02:05:02.957Z,99033.48
2017-09-11T02:07:30.327Z,99026.98
2017-09-11T02:09:57.718Z,99024.39
2017-09-11T02:12:25.106Z,99028.55
2017-09-11T02:14:52.491Z,99017.83
2017-09-11T02:17:19.883Z,99004.38
2017-09-11T02:19:47.274Z,99005.38
2017-09-11T02:22:14.655Z,99000.20
2017-09-11T02:24:42.048Z,98997.31
2017-09-11T02:27:09.522Z,98999.55
2017-09-11T02:29:36.984Z,98992.22
2017-09-11T02:32:04.375Z,98985.50
2017-09-11T02:34:31.769Z,98981.49
2017-09-11T02:36:59.156Z,98980.98
2017-09-11T02:39:26.538Z,98977.16
2017-09-11T02:41:53.921Z,98965.52
2017-09-11T02:44:21.311Z,98972.68
2017-09-11T02:46:48.690Z,98971.42
2017-09-11T02:49:16.122Z,98965.19
2017-09-11T02:51:43.518Z,98961.03
2017-09-11T02:54:10.886Z,98951.19
2017-09-11T02:56:38.386Z,98952.13
2017-09-11T02:59:05.771Z,98946.55
2017-09-11T03:01:33.162Z,98942.63
2017-09-11T03:04:00.553Z,98944.55
2017-09-11T03:06:28.018Z,98944.45
2017-09-11T03:08:55.470Z,98930.16
2017-09-11T03:11:22.927Z,98934.73
2017-09-11T03:13:50.306Z,98927.61
2017-09-11T03:16:17.694Z,98927.39
2017-09-11T03:18:45.074Z,98916.73
2017-09-11T03:21:12.554Z,98923.64
2017-09-11T03:23:39.930Z,98924.03
2017-09-11T03:26:07.319Z,98927.39
2017-09-11T03:28:34.730Z,98921.88
2017-09-11T03:31:02.115Z,98932.36
2017-09-11T03:33:29.498Z,98925.36
2017-09-11T03:35:56.981Z,98928.63
2017-09-11T03:38:24.363Z,98925.55
2017-09-11T03:40:51.751Z,98926.84
2017-09-11T03:43:19.154Z,98928.23
2017-09-11T03:45:46.539Z,98923.05
2017-09-11T03:48:13.930Z,98921.27
2017-09-11T03:50:41.314Z,98924.84
2017-09-11T03:53:08.711Z,98924.75
2017-09-11T03:55:36.091Z,98923.92
2017-09-11T03:58:03.482Z,98918.64
2017-09-11T04:00:30.866Z,98912.14
2017-09-11T04:02:58.254Z,98906.05
2017-09-11T04:05:25.633Z,98914.70
2017-09-11T04:07:53.015Z,98909.31
2017-09-11T04:10:20.389Z,98904.36
2017-09-11T04:12:47.774Z,98914.25
2017-09-11T04:15:15.150Z,98918.89
2017-09-11T04:17:42.547Z,98921.14
2017-09-11T04:20:09.925Z,98916.13
2017-09-11T04:22:37.316Z,98917.94
2017-09-11T04:25:04.746Z,98910.84
2017-09-11T04:27:32.276Z,98919.49
2017-09-11T04:29:59.624Z,98918.23
2017-09-11T04:32:27.011Z,98904.20
2017-09-11T04:34:54.424Z,98909.53
2017-09-11T04:37:21.822Z,98906.92
2017-09-11T04:39:49.206Z,98908.81
2017-09-11T04:42:16.592Z,98905.73
2017-09-11T04:44:43.983Z,98909.79
2017-09-11T04:47:11.354Z,98912.92
2017-09-11T04:49:38.750Z,98916.39
2017-09-11T04:52:06.135Z,98902.19
2017-09-11T04:54:33.539Z,98907.23
2017-09-11T04:57:00.917Z,98902.44
2017-09-11T04:59:28.306Z,98897.43
2017-09-11T05:01:55.746Z,98902.19
2017-09-11T05:04:23.129Z,98899.73
2017-09-11T05:06:50.507Z,98903.73
2017-09-11T05:09:17.898Z,98894.25
2017-09-11T05:11:45.339Z,98898.82
2017-09-11T05:14:12.727Z,98907.25
2017-09-11T05:16:40.111Z,98910.14
2017-09-11T05:19:07.491Z,98903.03
2017-09-11T05:21:34.876Z,98908.61
2017-09-11T05:24:02.317Z,98906.55
2017-09-11T05:26:29.702Z,98905.95
2017-09-11T05:28:57.096Z,98909.63
2017-09-11T05:31:24.486Z,98908.91
2017-09-11T05:33:51.866Z,98906.09
2017-09-11T05:36:19.258Z,98908.71
2017-09-11T05:38:46.643Z,98906.36
2017-09-11T05:41:14.038Z,98912.55
2017-09-11T05:43:41.423Z,98909.06
2017-09-11T05:46:08.806Z,98916.28
2017-09-11T05:48:36.191Z,98913.00
2017-09-11T05:51:03.631Z,98917.88
2017-09-11T05:53:31.015Z,98909.00
2017-09-11T05:55:58.406Z,98912.39
2017-09-11T05:58:25.783Z,98907.41
2017-09-11T06:00:53.171Z,98907.89
2017-09-11T06:03:20.547Z,98908.05
2017-09-11T06:05:47.936Z,98896.67
2017-09-11T06:08:15.914Z,98907.58
2017-09-11T06:10:43.350Z,98908.59
2017-09-11T06:13:10.719Z,98908.26
2017-09-11T06:15:38.208Z,98910.56
2017-09-11T06:18:06.076Z,98912.41
2017-09-11T06:20:33.438Z,98915.42
2017-09-11T06:23:00.826Z,98917.02
2017-09-11T06:25:28.210Z,98921.22
2017-09-11T06:27:55.617Z,98916.81
2017-09-11T06:30:23.024Z,98915.02
2017-09-11T06:32:50.418Z,98910.20
2017-09-11T06:35:17.811Z,98923.69
2017-09-11T06:37:45.198Z,98916.19
2017-09-11T06:40:12.578Z,98916.13
2017-09-11T06:42:40.020Z,98917.15
2017-09-11T06:45:07.398Z,98916.58
2017-09-11T06:47:34.826Z,98916.39
2017-09-11T06:50:02.206Z,98914.90
2017-09-11T06:52:29.596Z,98913.09
2017-09-11T06:54:56.970Z,98917.05
2017-09-11T06:57:24.394Z,98923.71
2017-09-11T06:59:51.786Z,98930.05
2017-09-11T07:02:19.311Z,98934.20
2017-09-11T07:04:46.698Z,98930.64
2017-09-11T07:07:14.170Z,98940.03
2017-09-11T07:09:41.547Z,98933.37
2017-09-11T07:12:20.878Z,98926.91
2017-09-11T07:14:48.335Z,98928.97
2017-09-11T07:17:15.695Z,98926.15
2017-09-11T07:19:43.074Z,98932.39
2017-09-11T07:22:10.450Z,98926.21
2017-09-11T07:24:37.858Z,98936.52
2017-09-11T07:27:05.247Z,98931.98
2017-09-11T07:29:32.669Z,98938.22
2017-09-11T07:32:00.097Z,98938.31
2017-09-11T07:34:27.562Z,98948.78
2017-09-11T07:36:55.014Z,98961.98
2017-09-11T07:39:22.402Z,98947.01
2017-09-11T07:41:49.827Z,98948.25
2017-09-11T07:44:17.221Z,98942.69
2017-09-11T07:46:44.614Z,98936.36
2017-09-11T07:49:11.998Z,98943.34
2017-09-11T07:51:39.382Z,98950.98
2017-09-11T07:54:06.778Z,98964.27
2017-09-11T07:56:34.432Z,98961.72
2017-09-11T07:59:01.815Z,98956.74
2017-09-11T08:01:29.204Z,98962.85
2017-09-11T08:03:56.939Z,98967.04
2017-09-11T08:06:25.371Z,98965.45
2017-09-11T08:08:52.759Z,98962.99
2017-09-11T08:11:20.233Z,98979.70
2017-09-11T08:13:47.607Z,98967.55
2017-09-11T08:16:14.999Z,98966.48
2017-09-11T08:18:42.378Z,98978.23
2017-09-11T08:21:09.926Z,98968.39
2017-09-11T08:23:37.303Z,98980.14
2017-09-11T08:26:04.691Z,98980.46
2017-09-11T08:28:32.098Z,98974.95
2017-09-11T08:30:59.486Z,98976.16
2017-09-11T08:33:26.871Z,98974.22
2017-09-11T08:35:54.258Z,98967.78
2017-09-11T08:38:21.694Z,98980.17
2017-09-11T08:40:49.119Z,98971.91
2017-09-11T08:43:16.575Z,98973.17
2017-09-11T08:45:44.031Z,98972.77
2017-09-11T08:48:11.414Z,98974.79
2017-09-11T08:50:38.806Z,98985.04
2017-09-11T08:53:06.169Z,98982.45
2017-09-11T08:55:33.663Z,98974.29
2017-09-11T08:58:01.038Z,98968.50
2017-09-11T09:00:28.438Z,98976.77
2017-09-11T09:02:55.806Z,98980.72
2017-09-11T09:05:23.197Z,98975.02
2017-09-11T09:07:50.578Z,98969.95
2017-09-11T09:10:17.971Z,98974.72
2017-09-11T09:12:45.352Z,98974.90
2017-09-11T09:15:12.802Z,98970.44
2017-09-11T09:17:40.191Z,98967.75
2017-09-11T09:20:07.580Z,98967.88
2017-09-11T09:22:34.968Z,98978.48
2017-09-11T09:25:02.347Z,98970.81
2017-09-11T09:27:29.750Z,98967.16
2017-09-11T09:29:57.118Z,98955.14
2017-09-11T09:32:24.509Z,98952.91
2017-09-11T09:34:51.900Z,98961.52
2017-09-11T09:37:19.296Z,98961.09
2017-09-11T09:39:46.682Z,98960.64
2017-09-11T09:42:14.066Z,98956.61
2017-09-11T09:44:41.466Z,98959.22
2017-09-11T09:47:08.858Z,98953.71
2017-09-11T09:49:36.247Z,98957.64
2017-09-11T09:52:03.631Z,98951.83
2017-09-11T09:54:31.090Z,98956.70
2017-09-11T09:56:59.093Z,98952.47
2017-09-11T09:59:26.474Z,98954.27
2017-09-11T10:01:54.208Z,98956.96
2017-09-11T10:04:21.578Z,98948.75
2017-09-11T10:06:48.960Z,98946.82
2017-09-11T10:09:16.342Z,98948.46
2017-09-11T10:11:43.723Z,98958.84
2017-09-11T10:14:12.143Z,98966.95
2017-09-11T10:16:40.166Z,98955.47
2017-09-11T10:19:07.550Z,98962.04
2017-09-11T10:21:34.946Z,98955.91
2017-09-11T10:24:02.422Z,98958.30
2017-09-11T10:26:30.441Z,98963.81
2017-09-11T10:28:57.815Z,98971.63
2017-09-11T10:31:25.195Z,98962.84
2017-09-11T10:33:52.591Z,98965.72
2017-09-11T10:36:19.980Z,98961.84
2017-09-11T10:38:47.355Z,98960.66
2017-09-11T10:41:14.822Z,98968.83
2017-09-11T10:43:42.207Z,98965.72
2017-09-11T10:46:09.597Z,98969.97
2017-09-11T10:48:36.978Z,98973.22
2017-09-11T10:51:04.365Z,98966.11
2017-09-11T10:53:31.743Z,98962.28
2017-09-11T10:55:59.157Z,98957.02
2017-09-11T10:58:26.534Z,98963.98
2017-09-11T11:00:53.944Z,98968.83
2017-09-11T11:03:21.326Z,98967.20
2017-09-11T11:05:48.791Z,98966.64
2017-09-11T11:08:16.227Z,98973.17
2017-09-11T11:10:43.612Z,98968.14
2017-09-11T11:13:10.995Z,98959.56
2017-09-11T11:15:38.386Z,98969.59
2017-09-11T11:18:05.758Z,98960.16
2017-09-11T11:20:33.147Z,98959.09
2017-09-11T11:23:00.523Z,98960.72
2017-09-11T11:25:27.924Z,98961.17
2017-09-11T11:27:55.299Z,98971.67
2017-09-11T11:30:22.678Z,98969.80
2017-09-11T11:32:50.063Z,98979.53
2017-09-11T11:35:17.442Z,98971.12
2017-09-11T11:37:44.826Z,98972.59
2017-09-11T11:40:12.206Z,98968.09
2017-09-11T11:42:39.635Z,98978.05
2017-09-11T11:45:07.070Z,98977.97
2017-09-11T11:47:34.458Z,98987.30
2017-09-11T11:50:01.838Z,98995.56
2017-09-11T11:52:29.542Z,98991.69
2017-09-11T11:54:56.922Z,98993.63
2017-09-11T11:57:24.407Z,98982.38
2017-09-11T11:59:51.782Z,98984.47
2017-09-11T12:02:19.171Z,98990.08
2017-09-11T12:04:46.554Z,98989.30
2017-09-11T12:07:13.963Z,98989.60
2017-09-11T12:09:41.382Z,98993.04
2017-09-11T12:14:40.359Z,98998.22
2017-09-11T12:17:07.746Z,98996.94
2017-09-11T12:19:35.127Z,98999.62
2017-09-11T12:22:02.502Z,99000.00
2017-09-11T12:24:29.886Z,98999.07
2017-09-11T12:26:57.270Z,98998.44
2017-09-11T12:29:24.662Z,98988.91
2017-09-11T12:31:52.055Z,98982.60
2017-09-11T12:34:19.443Z,98988.73
2017-09-11T12:36:46.826Z,98997.28
2017-09-11T12:39:14.359Z,98993.15
2017-09-11T12:41:41.739Z,98991.19
2017-09-11T12:44:09.784Z,98988.91
2017-09-11T12:46:38.950Z,98997.09
2017-09-11T12:49:06.677Z,98981.31
2017-09-11T12:51:34.231Z,98988.94
2017-09-11T12:54:01.627Z,98997.74
2017-09-11T12:56:29.002Z,98989.20
2017-09-11T12:58:56.390Z,98994.66
2017-09-11T13:01:23.771Z,98987.81
2017-09-11T13:03:51.155Z,99001.73
2017-09-11T13:06:18.978Z,99001.03
2017-09-11T13:08:46.371Z,98997.73
2017-09-11T13:11:13.752Z,98983.27
2017-09-11T13:13:41.137Z,98997.95
2017-09-11T13:16:08.523Z,98982.64
2017-09-11T13:18:35.921Z,98991.72
2017-09-11T13:21:03.311Z,98993.59
2017-09-11T13:23:30.698Z,98998.05
2017-09-11T13:25:58.202Z,98998.23
2017-09-11T13:28:25.591Z,98987.72
2017-09-11T13:30:53.218Z,98970.05
2017-09-11T13:33:20.590Z,98997.84
2017-09-11T13:35:47.984Z,98991.11
2017-09-11T13:38:15.364Z,98985.98
2017-09-11T13:40:42.754Z,98989.42
2017-09-11T13:43:10.135Z,99000.14
2017-09-11T13:45:37.545Z,99004.25
2017-09-11T13:48:05.574Z,98993.09
2017-09-11T13:50:32.966Z,98995.56
2017-09-11T13:53:00.347Z,98993.71
2017-09-11T13:55:27.742Z,98990.30
2017-09-11T13:57:55.134Z,98995.23
2017-09-11T14:00:22.531Z,99000.36
2017-09-11T14:02:49.902Z,98990.08
2017-09-11T14:05:17.281Z,98982.60
2017-09-11T14:07:44.666Z,98988.19
2017-09-11T14:10:12.051Z,98989.95
2017-09-11T14:12:39.494Z,98984.63
2017-09-11T14:15:06.862Z,98989.07
2017-09-11T14:17:34.258Z,98977.38
2017-09-11T14:20:01.642Z,98983.12
2017-09-11T14:22:29.041Z,99006.25
2017-09-11T14:24:56.426Z,98995.42
2017-09-11T14:27:23.911Z,98994.03
2017-09-11T14:29:51.290Z,98999.27
2017-09-11T14:32:18.683Z,98980.50
2017-09-11T14:34:46.062Z,98988.15
2017-09-11T14:37:13.471Z,98990.48
2017-09-11T14:39:40.858Z,98981.13
2017-09-11T14:42:08.250Z,98975.25
2017-09-11T14:44:35.626Z,98972.09
2017-09-11T14:47:03.062Z,98979.48
2017-09-11T14:49:30.438Z,98976.55
2017-09-11T14:51:57.822Z,98973.79
2017-09-11T14:54:25.230Z,98972.68
2017-09-11T14:56:52.618Z,98982.56
2017-09-11T14:59:20.009Z,98985.17
2017-09-11T15:01:47.387Z,98994.48
2017-09-11T15:04:14.790Z,99004.74
2017-09-11T15:06:42.186Z,98990.70
2017-09-11T15:09:09.566Z,99004.13
2017-09-11T15:11:36.959Z,99005.16
2017-09-11T15:14:04.350Z,98996.72
2017-09-11T15:16:31.734Z,98999.80
2017-09-11T15:18:59.127Z,99010.13
2017-09-11T15:21:26.502Z,99008.42
2017-09-11T15:23:54.002Z,99019.30
2017-09-11T15:26:21.379Z,99016.10
2017-09-11T15:28:48.807Z,99027.11
2017-09-11T15:31:16.187Z,99025.46
2017-09-11T15:33:43.569Z,99021.08
2017-09-11T15:36:10.956Z,99013.85
2017-09-11T15:38:38.350Z,99016.40
2017-09-11T15:41:05.730Z,99016.22
2017-09-11T15:43:33.114Z,99017.70
2017-09-11T15:46:00.599Z,99024.52
2017-09-11T15:48:27.999Z,99018.77
2017-09-11T15:50:55.383Z,99023.02
2017-09-11T15:53:22.763Z,99021.64
2017-09-11T15:55:50.147Z,99025.17
2017-09-11T15:58:17.542Z,99028.28
2017-09-11T16:00:44.930Z,99010.64
2017-09-11T16:03:12.314Z,99018.80
2017-09-11T16:05:39.715Z,99011.99
2017-09-11T16:08:07.212Z,99018.04
2017-09-11T16:10:34.594Z,99023.64
2017-09-11T16:13:01.988Z,99007.03
2017-09-11T16:15:29.378Z,99012.60
2017-09-11T16:17:56.758Z,99009.13
2017-09-11T16:20:24.153Z,99006.17
2017-09-11T16:22:51.530Z,99021.88
2017-09-11T16:25:18.919Z,99015.68
2017-09-11T16:27:46.298Z,99016.25
2017-09-11T16:30:13.690Z,99014.48
2017-09-11T16:32:41.071Z,99018.53
2017-09-11T16:35:08.515Z,99002.07
2017-09-11T16:37:35.899Z,99008.00
2017-09-11T16:40:03.282Z,99000.13
2017-09-11T16:42:30.671Z,99007.19
2017-09-11T16:44:58.067Z,99012.60
2017-09-11T16:47:25.464Z,99010.56
2017-09-11T16:49:52.845Z,99011.34
2017-09-11T16:52:20.231Z,99005.19
2017-09-11T16:54:47.615Z,99040.34
2017-09-11T16:57:14.998Z,99033.98
2017-09-11T16:59:42.387Z,99025.97
2017-09-11T17:02:09.781Z,99014.67
2017-09-11T17:04:37.159Z,99022.11
2017-09-11T17:07:04.555Z,99027.15
2017-09-11T17:09:31.939Z,99016.59
2017-09-11T17:11:59.334Z,99010.45
2017-09-11T17:14:26.714Z,99013.27
2017-09-11T17:16:54.168Z,99012.80
2017-09-11T17:19:21.542Z,99016.68
2017-09-11T17:21:48.926Z,99012.66
2017-09-11T17:24:16.315Z,99014.75
2017-09-11T17:26:43.720Z,99026.34
2017-09-11T17:29:11.143Z,99021.94
2017-09-11T17:31:38.594Z,99026.06
2017-09-11T17:34:05.994Z,99027.50
2017-09-11T17:36:33.383Z,99037.63
2017-09-11T17:39:00.762Z,99036.12
2017-09-11T17:41:28.155Z,99037.00
2017-09-11T17:43:55.574Z,99039.23
2017-09-11T17:46:22.966Z,99038.80
2017-09-11T17:48:50.349Z,99042.42
2017-09-11T17:51:17.743Z,99040.73
2017-09-11T17:53:45.131Z,99039.05
2017-09-11T17:56:12.510Z,99042.09
2017-09-11T17:58:39.893Z,99037.22
2017-09-11T18:01:07.337Z,99044.68
2017-09-11T18:03:34.719Z,99033.66
2017-09-11T18:06:02.096Z,99039.95
2017-09-11T18:08:29.486Z,99043.50
2017-09-11T18:10:56.869Z,99050.45
2017-09-11T18:13:24.270Z,99043.61
2017-09-11T18:15:51.646Z,99044.45
2017-09-11T18:18:19.042Z,99047.83
2017-09-11T18:20:46.428Z,99049.72
2017-09-11T18:23:13.815Z,99055.12
2017-09-11T18:25:41.194Z,99055.81
2017-09-11T18:28:08.574Z,99046.55
2017-09-11T18:30:35.967Z,99052.80
2017-09-11T18:33:03.346Z,99044.35
2017-09-11T18:35:30.734Z,99045.98
2017-09-11T18:37:58.110Z,99046.72
2017-09-11T18:40:25.520Z,99054.62
2017-09-11T18:42:53.010Z,99060.61
2017-09-11T18:45:20.468Z,99057.00
2017-09-11T18:47:48.795Z,99073.23
2017-09-11T18:50:16.191Z,99064.27
2017-09-11T18:52:43.574Z,99067.64
2017-09-11T18:55:11.026Z,99076.55
2017-09-11T18:57:38.411Z,99074.88
2017-09-11T19:00:05.806Z,99077.15
2017-09-11T19:02:33.196Z,99075.16
2017-09-11T19:05:00.586Z,99065.26
2017-09-11T19:07:27.991Z,99067.85
2017-09-11T19:09:55.378Z,99070.75
2017-09-11T19:12:22.763Z,99073.91
2017-09-11T19:14:50.168Z,99077.40
2017-09-11T19:17:17.548Z,99078.63
2017-09-11T19:19:44.938Z,99082.06
2017-09-11T19:22:12.326Z,99084.67
2017-09-11T19:24:39.729Z,99092.50
2017-09-11T19:27:07.104Z,99087.38
2017-09-11T19:29:34.482Z,99092.69
2017-09-11T19:32:01.875Z,99091.92
2017-09-11T19:34:29.259Z,99082.19
2017-09-11T19:36:56.638Z,99086.63
2017-09-11T19:39:24.024Z,99087.65
2017-09-11T19:41:51.463Z,99084.44
2017-09-11T19:44:18.843Z,99084.66
2017-09-11T19:46:50.954Z,99090.44
2017-09-11T19:49:18.330Z,99083.41
2017-09-11T19:51:45.714Z,99085.22
2017-09-11T19:54:13.102Z,99078.80
2017-09-11T19:56:40.502Z,99073.89
2017-09-11T19:59:07.963Z,99075.45
2017-09-11T20:01:35.370Z,99074.89
2017-09-11T20:04:02.755Z,99072.76
2017-09-11T20:06:30.149Z,99081.00
2017-09-11T20:08:57.535Z,99079.62
2017-09-11T20:11:24.918Z,99083.87
2017-09-11T20:13:52.307Z,99086.27
2017-09-11T20:16:19.686Z,99097.67
2017-09-11T20:18:47.074Z,99093.61
2017-09-11T20:21:14.559Z,99094.44
2017-09-11T20:23:41.966Z,99091.39
2017-09-11T20:26:09.346Z,99091.99
2017-09-11T20:28:38.624Z,99100.63
2017-09-11T20:31:06.043Z,99107.67
2017-09-11T20:33:33.422Z,99117.45
2017-09-11T20:36:00.822Z,99109.06
2017-09-11T20:38:28.212Z,99114.14
2017-09-11T20:40:55.596Z,99115.59
2017-09-11T20:43:22.982Z,99118.27
2017-09-11T20:45:50.362Z,99107.83
2017-09-11T20:48:17.751Z,99112.48
2017-09-11T20:50:45.151Z,99106.50
2017-09-11T20:53:12.530Z,99105.83
2017-09-11T20:55:39.906Z,99114.09
2017-09-11T20:58:07.291Z,99106.26
2017-09-11T21:00:34.675Z,99114.39
2017-09-11T21:03:02.070Z,99114.33
2017-09-11T21:05:29.448Z,99117.52
2017-09-11T21:07:56.846Z,99122.66
2017-09-11T21:10:24.235Z,99126.31
2017-09-11T21:12:51.615Z,99129.77
2017-09-11T21:15:19.002Z,99125.51
2017-09-11T21:17:46.391Z,99124.55
2017-09-11T21:20:13.770Z,99132.55
2017-09-11T21:22:41.154Z,99128.38
2017-09-11T21:25:08.551Z,99128.25
2017-09-11T21:27:35.938Z,99140.13
2017-09-11T21:30:03.794Z,99139.30
2017-09-11T21:32:31.175Z,99140.86
2017-09-11T21:34:58.562Z,99148.53
2017-09-11T21:37:25.938Z,99129.58
2017-09-11T21:39:53.323Z,99129.34
2017-09-11T21:42:20.706Z,99130.40
2017-09-11T21:44:48.104Z,99137.83
2017-09-11T21:47:16.418Z,99137.66
2017-09-11T21:49:43.807Z,99138.50
2017-09-11T21:52:11.286Z,99135.41
2017-09-11T21:54:38.679Z,99137.59
2017-09-11T21:57:06.099Z,99146.48
2017-09-11T21:59:33.482Z,99144.72
2017-09-11T22:02:00.875Z,99146.22
2017-09-11T22:04:28.254Z,99140.13
2017-09-11T22:06:55.645Z,99138.77
2017-09-11T22:09:23.019Z,99142.11
2017-09-11T22:11:50.422Z,99140.02
2017-09-11T22:14:17.886Z,99146.27
2017-09-11T22:16:45.274Z,99142.01
2017-09-11T22:19:12.658Z,99143.34
2017-09-11T22:21:40.046Z,99134.14
2017-09-11T22:24:07.431Z,99136.02
2017-09-11T22:26:34.822Z,99135.47
2017-09-11T22:29:02.203Z,99135.44
2017-09-11T22:31:29.598Z,99130.73
2017-09-11T22:33:56.975Z,99128.15
2017-09-11T22:36:24.367Z,99130.23
2017-09-11T22:38:51.766Z,99130.20
2017-09-11T22:41:19.157Z,99126.77
2017-09-11T22:43:46.650Z,99118.59
2017-09-11T22:46:14.103Z,99129.04
2017-09-11T22:48:41.566Z,99134.70
2017-09-11T22:51:08.956Z,99140.70
2017-09-11T22:53:36.342Z,99138.11
2017-09-11T22:56:03.727Z,99134.53
2017-09-11T22:58:31.187Z,99139.89
2017-09-11T23:00:58.644Z,99140.28
2017-09-11T23:03:26.099Z,99134.86
2017-09-11T23:05:53.484Z,99142.86
2017-09-11T23:08:20.876Z,99141.34
2017-09-11T23:10:48.254Z,99139.42
2017-09-11T23:13:15.648Z,99143.83
2017-09-11T23:15:43.040Z,99143.27
2017-09-11T23:18:13.826Z,99141.45
2017-09-11T23:20:41.194Z,99154.27
2017-09-11T23:23:08.584Z,99154.23
2017-09-11T23:25:36.079Z,99156.05
2017-09-11T23:28:03.470Z,99155.28
2017-09-11T23:30:30.855Z,99156.84
2017-09-11T23:32:58.338Z,99164.27
2017-09-11T23:35:25.745Z,99157.91
2017-09-11T23:37:53.105Z,99160.52
2017-09-11T23:40:20.491Z,99165.81
2017-09-11T23:42:47.883Z,99162.96
2017-09-11T23:45:15.270Z,99160.72
2017-09-11T23:47:42.658Z,99159.30
2017-09-11T23:50:10.051Z,99160.68
2017-09-11T23:52:37.430Z,99158.92
2017-09-11T23:55:04.822Z,99160.06
2017-09-11T23:57:32.303Z,99157.59
2017-09-11T23:59:59.758Z,99157.61
